createdAt,value
2023-03-11T00:46:18.988Z,646.00
2023-03-11T00:47:18.986Z,650.00
2023-03-11T00:48:19.058Z,650.00
2023-03-11T00:49:19.126Z,644.00
2023-03-11T00:50:19.935Z,646.00
2023-03-11T00:51:19.273Z,648.00
2023-03-11T00:52:19.354Z,646.00
2023-03-11T00:53:19.407Z,649.00
2023-03-11T00:54:19.476Z,644.00
2023-03-11T00:55:19.555Z,647.00
2023-03-11T00:56:19.618Z,647.00
2023-03-11T00:57:19.699Z,647.00
2023-03-11T00:58:19.760Z,644.00
2023-03-11T00:59:19.823Z,646.00
2023-03-11T01:00:19.891Z,641.00
2023-03-11T01:01:19.993Z,647.00
2023-03-11T01:02:20.023Z,644.00
2023-03-11T01:03:20.089Z,645.00
2023-03-11T01:04:20.193Z,645.00
2023-03-11T01:05:20.216Z,639.00
2023-03-11T01:06:20.282Z,642.00
2023-03-11T01:07:20.355Z,646.00
2023-03-11T01:08:20.435Z,645.00
2023-03-11T01:09:20.560Z,641.00
2023-03-11T01:10:20.563Z,642.00
2023-03-11T01:11:20.627Z,645.00
2023-03-11T01:12:20.709Z,643.00
2023-03-11T01:13:20.787Z,644.00
2023-03-11T01:14:20.840Z,641.00
2023-03-11T01:15:20.914Z,645.00
2023-03-11T01:16:21.043Z,641.00
2023-03-11T01:17:21.045Z,642.00
2023-03-11T01:18:21.120Z,640.00
2023-03-11T01:19:21.184Z,646.00
2023-03-11T01:20:21.250Z,642.00
2023-03-11T01:21:21.321Z,642.00
2023-03-11T01:22:21.394Z,639.00
2023-03-11T01:23:21.459Z,642.00
2023-03-11T01:24:21.528Z,641.00
2023-03-11T01:25:21.622Z,637.00
2023-03-11T01:26:21.690Z,642.00
2023-03-11T01:27:21.746Z,637.00
2023-03-11T01:28:21.811Z,639.00
2023-03-11T01:29:21.886Z,635.00
2023-03-11T01:30:21.956Z,640.00
2023-03-11T01:31:22.054Z,638.00
2023-03-11T01:32:22.129Z,638.00
2023-03-11T01:33:22.169Z,643.00
2023-03-11T01:34:22.947Z,641.00
2023-03-11T01:35:22.329Z,637.00
2023-03-11T01:36:22.446Z,639.00
2023-03-11T01:37:22.446Z,637.00
2023-03-11T01:38:22.542Z,637.00
2023-03-11T01:39:22.590Z,634.00
2023-03-11T01:40:22.656Z,637.00
2023-03-11T01:41:22.744Z,636.00
2023-03-11T01:42:22.795Z,644.00
2023-03-11T01:43:22.862Z,638.00
2023-03-11T01:44:22.941Z,639.00
2023-03-11T01:45:23.012Z,637.00
2023-03-11T01:46:23.147Z,640.00
2023-03-11T01:47:23.170Z,637.00
2023-03-11T01:48:23.229Z,639.00
2023-03-11T01:49:23.296Z,637.00
2023-03-11T01:50:23.364Z,633.00
2023-03-11T01:51:23.439Z,634.00
2023-03-11T01:52:23.544Z,635.00
2023-03-11T01:53:23.663Z,637.00
2023-03-11T02:54:28.970Z,624.00
2023-03-11T03:03:28.980Z,618.00
2023-03-11T03:04:29.095Z,616.00
2023-03-11T03:05:29.143Z,618.00
2023-03-11T03:06:29.217Z,623.00
2023-03-11T03:07:29.299Z,618.00
2023-03-11T03:08:29.369Z,622.00
2023-03-11T03:09:29.454Z,620.00
2023-03-11T03:10:29.534Z,617.00
2023-03-11T03:11:29.623Z,619.00
2023-03-11T03:12:29.688Z,622.00
2023-03-11T03:13:29.772Z,621.00
2023-03-11T03:14:29.852Z,617.00
2023-03-11T05:05:39.024Z,601.00
2023-03-11T05:06:39.023Z,598.00
2023-03-11T05:07:39.137Z,599.00
2023-03-11T05:08:39.210Z,600.00
2023-03-11T05:09:39.306Z,597.00
2023-03-11T05:10:39.397Z,599.00
2023-03-11T05:11:39.482Z,598.00
2023-03-11T05:12:39.573Z,596.00
2023-03-11T05:13:39.654Z,596.00
2023-03-11T05:14:39.750Z,595.00
2023-03-11T05:15:40.030Z,593.00
2023-03-11T05:16:39.993Z,598.00
2023-03-11T05:17:40.019Z,595.00
2023-03-11T05:18:40.097Z,595.00
2023-03-11T05:19:40.189Z,599.00
2023-03-11T05:20:40.270Z,590.00
2023-03-11T05:21:40.432Z,593.00
2023-03-11T05:22:40.433Z,598.00
2023-03-11T05:23:40.526Z,592.00
2023-03-11T05:24:40.604Z,596.00
2023-03-11T05:25:40.777Z,596.00
2023-03-11T05:26:40.805Z,598.00
2023-03-11T05:27:40.886Z,589.00
2023-03-11T05:28:40.957Z,594.00
2023-03-11T05:29:41.046Z,592.00
2023-03-11T05:30:41.130Z,593.00
2023-03-11T05:31:41.204Z,590.00
2023-03-11T05:32:41.335Z,593.00
2023-03-11T05:33:41.384Z,596.00
2023-03-11T05:34:41.444Z,594.00
2023-03-11T05:35:41.591Z,593.00
2023-03-11T05:36:42.023Z,589.00
2023-03-11T05:37:41.678Z,590.00
2023-03-11T05:38:41.798Z,590.00
2023-03-11T05:39:41.929Z,595.00
2023-03-11T05:40:41.946Z,592.00
2023-03-11T05:41:42.035Z,597.00
2023-03-11T05:42:42.131Z,595.00
2023-03-11T05:43:42.199Z,590.00
2023-03-11T05:44:42.299Z,587.00
2023-03-11T05:45:42.361Z,590.00
2023-03-11T05:46:42.495Z,589.00
2023-03-11T05:47:42.520Z,589.00
2023-03-11T05:48:42.607Z,590.00
2023-03-11T05:49:42.695Z,589.00
2023-03-11T05:50:42.783Z,586.00
2023-03-11T05:51:42.874Z,597.00
2023-03-11T05:52:42.943Z,591.00
2023-03-11T05:53:43.020Z,590.00
2023-03-11T05:54:43.153Z,593.00
2023-03-11T05:55:43.182Z,584.00
2023-03-11T05:56:43.260Z,589.00
2023-03-11T05:57:43.360Z,589.00
2023-03-11T05:58:43.422Z,588.00
2023-03-11T05:59:43.512Z,590.00
2023-03-11T06:00:43.589Z,593.00
2023-03-11T06:01:43.664Z,588.00
2023-03-11T06:02:43.744Z,587.00
2023-03-11T06:03:43.865Z,591.00
2023-03-11T06:04:43.978Z,587.00
2023-03-11T06:05:44.007Z,590.00
2023-03-11T06:06:44.115Z,589.00
2023-03-11T06:07:44.200Z,582.00
2023-03-11T06:08:45.031Z,585.00
2023-03-11T06:09:44.355Z,586.00
2023-03-11T06:10:44.444Z,582.00
2023-03-11T06:11:44.545Z,585.00
2023-03-11T06:12:44.604Z,587.00
2023-03-11T06:13:44.676Z,585.00
2023-03-11T06:14:44.759Z,580.00
2023-03-11T06:15:44.854Z,584.00
2023-03-11T06:16:44.949Z,583.00
2023-03-11T06:17:45.022Z,581.00
2023-03-11T06:18:45.122Z,581.00
2023-03-11T06:19:45.263Z,579.00
2023-03-11T06:20:45.333Z,582.00
2023-03-11T06:21:45.373Z,582.00
2023-03-11T06:22:45.459Z,581.00
2023-03-11T06:23:45.575Z,580.00
2023-03-11T06:24:45.701Z,581.00
2023-03-11T06:25:45.733Z,577.00
2023-03-11T06:26:45.829Z,577.00
2023-03-11T06:27:45.913Z,578.00
2023-03-11T06:28:46.004Z,578.00
2023-03-11T06:29:48.586Z,574.00
2023-03-11T06:30:46.315Z,583.00
2023-03-11T06:31:46.440Z,579.00
2023-03-11T06:32:46.515Z,578.00
2023-03-11T06:33:46.566Z,577.00
2023-03-11T06:34:46.664Z,578.00
2023-03-11T06:35:46.812Z,576.00
2023-03-11T06:36:46.837Z,573.00
2023-03-11T06:37:46.989Z,570.00
2023-03-11T06:38:47.013Z,572.00
2023-03-11T06:39:47.088Z,580.00
2023-03-11T06:40:47.255Z,573.00
2023-03-11T06:41:47.265Z,574.00
2023-03-11T06:42:47.328Z,573.00
2023-03-11T06:43:47.468Z,572.00
2023-03-11T06:44:47.495Z,571.00
2023-03-11T06:45:47.591Z,572.00
2023-03-11T06:46:47.671Z,573.00
2023-03-11T06:47:47.758Z,572.00
2023-03-11T06:48:47.917Z,573.00
2023-03-11T06:49:47.937Z,573.00
2023-03-11T06:50:48.516Z,568.00
2023-03-11T06:51:48.089Z,567.00
2023-03-11T06:52:48.183Z,575.00
2023-03-11T06:53:48.257Z,570.00
2023-03-11T06:54:48.323Z,570.00
2023-03-11T06:55:48.411Z,570.00
2023-03-11T06:56:48.486Z,569.00
2023-03-11T06:57:48.573Z,572.00
2023-03-11T06:58:48.656Z,566.00
2023-03-11T06:59:48.740Z,566.00
2023-03-11T07:00:48.837Z,567.00
2023-03-11T07:01:48.889Z,569.00
2023-03-11T07:02:48.974Z,566.00
2023-03-11T07:03:49.100Z,566.00
2023-03-11T07:04:49.150Z,561.00
2023-03-11T07:05:49.224Z,564.00
2023-03-11T07:06:49.319Z,560.00
2023-03-11T07:07:49.397Z,567.00
2023-03-11T07:08:49.483Z,567.00
2023-03-11T07:09:49.562Z,564.00
2023-03-11T07:10:49.652Z,566.00
2023-03-11T07:11:49.740Z,565.00
2023-03-11T07:12:49.824Z,565.00
2023-03-11T07:13:49.892Z,563.00
2023-03-11T07:14:49.980Z,567.00
2023-03-11T07:15:50.147Z,566.00
2023-03-11T07:16:50.280Z,562.00
2023-03-11T07:17:50.249Z,563.00
2023-03-11T07:18:50.342Z,564.00
2023-03-11T07:19:50.418Z,569.00
2023-03-11T07:20:50.505Z,565.00
2023-03-11T07:21:50.675Z,564.00
2023-03-11T07:22:50.679Z,564.00
2023-03-11T07:23:50.770Z,562.00
2023-03-11T07:24:50.863Z,566.00
2023-03-11T07:25:50.942Z,569.00
2023-03-11T07:26:51.046Z,562.00
2023-03-11T07:27:51.142Z,562.00
2023-03-11T07:28:51.213Z,564.00
2023-03-11T07:29:51.303Z,560.00
2023-03-11T07:30:51.398Z,563.00
2023-03-11T07:31:51.533Z,564.00
2023-03-11T07:32:51.607Z,565.00
2023-03-11T07:33:51.652Z,566.00
2023-03-11T07:34:51.751Z,564.00
2023-03-11T07:35:51.877Z,568.00
2023-03-11T07:36:51.989Z,559.00
2023-03-11T07:37:52.014Z,566.00
2023-03-11T07:38:52.100Z,567.00
2023-03-11T07:39:52.252Z,567.00
2023-03-11T07:40:52.266Z,562.00
2023-03-11T07:41:52.341Z,564.00
2023-03-11T07:42:52.435Z,563.00
2023-03-11T07:43:52.519Z,559.00
2023-03-11T07:44:52.708Z,563.00
2023-03-11T07:45:52.722Z,556.00
2023-03-11T07:46:52.822Z,560.00
2023-03-11T07:47:52.900Z,566.00
2023-03-11T07:48:52.977Z,562.00
2023-03-11T07:49:53.071Z,560.00
2023-03-11T07:50:53.154Z,558.00
2023-03-11T07:51:53.249Z,557.00
2023-03-11T07:52:53.350Z,565.00
2023-03-11T07:53:53.450Z,561.00
2023-03-11T07:54:53.532Z,562.00
2023-03-11T07:55:53.626Z,565.00
2023-03-11T07:56:53.703Z,560.00
2023-03-11T07:57:53.804Z,567.00
2023-03-11T07:58:53.903Z,559.00
2023-03-11T07:59:53.985Z,561.00
2023-03-11T08:00:54.074Z,558.00
2023-03-11T08:01:54.162Z,560.00
2023-03-11T08:02:54.250Z,561.00
2023-03-11T08:03:54.379Z,557.00
2023-03-11T08:04:54.411Z,560.00
2023-03-11T08:05:54.499Z,560.00
2023-03-11T08:06:54.599Z,555.00
2023-03-11T08:07:54.683Z,557.00
2023-03-11T08:08:54.763Z,557.00
2023-03-11T08:09:54.846Z,559.00
2023-03-11T08:10:54.946Z,555.00
2023-03-11T08:54:58.961Z,554.00
2023-03-11T08:55:59.058Z,552.00
2023-03-11T08:56:59.157Z,557.00
2023-03-11T08:57:59.227Z,550.00
2023-03-11T08:58:59.327Z,562.00
2023-03-11T08:59:59.381Z,551.00
2023-03-11T09:00:59.443Z,553.00
2023-03-11T09:01:59.539Z,555.00
2023-03-11T09:02:59.636Z,552.00
2023-03-11T09:03:59.725Z,555.00
2023-03-11T09:05:59.900Z,558.00
2023-03-11T10:49:09.116Z,547.00
2023-03-11T10:54:08.974Z,554.00
2023-03-11T10:55:09.056Z,546.00
2023-03-11T10:56:09.120Z,551.00
2023-03-11T10:57:09.196Z,548.00
2023-03-11T10:58:09.293Z,554.00
2023-03-11T10:59:09.347Z,551.00
2023-03-11T11:00:09.425Z,551.00
2023-03-11T11:01:09.524Z,543.00
2023-03-11T11:02:09.586Z,547.00
2023-03-11T11:03:09.625Z,549.00
2023-03-11T11:04:09.755Z,546.00
2023-03-11T11:05:09.804Z,550.00
2023-03-11T11:06:09.880Z,549.00
2023-03-11T11:07:09.952Z,551.00
2023-03-11T11:08:10.019Z,550.00
2023-03-11T11:09:10.077Z,548.00
2023-03-11T11:10:10.133Z,548.00
2023-03-11T11:11:10.194Z,553.00
2023-03-11T11:12:10.267Z,549.00
2023-03-11T11:13:10.335Z,549.00
2023-03-11T11:14:10.435Z,548.00
2023-03-11T11:15:10.451Z,547.00
2023-03-11T11:16:10.521Z,551.00
2023-03-11T11:17:10.519Z,552.00
2023-03-11T11:18:10.561Z,547.00
2023-03-11T11:19:10.619Z,548.00
2023-03-11T11:20:10.693Z,551.00
2023-03-11T11:21:10.769Z,551.00
2023-03-11T11:22:10.840Z,545.00
2023-03-11T11:23:10.917Z,549.00
2023-03-11T11:24:11.003Z,545.00
2023-03-11T11:25:11.141Z,551.00
2023-03-11T11:26:11.119Z,551.00
2023-03-11T11:27:11.250Z,549.00
2023-03-11T11:28:11.256Z,550.00
2023-03-11T11:29:11.332Z,550.00
2023-03-11T11:30:11.413Z,552.00
2023-03-11T11:31:11.524Z,548.00
2023-03-11T11:32:11.571Z,548.00
2023-03-11T13:37:14.396Z,541.00
2023-03-11T13:38:14.446Z,543.00
2023-03-11T13:39:14.485Z,546.00
2023-03-11T13:40:14.585Z,544.00
2023-03-11T13:41:14.542Z,546.00
2023-03-11T13:42:14.571Z,546.00
2023-03-11T13:43:14.597Z,544.00
2023-03-11T13:44:14.612Z,547.00
2023-03-11T13:45:14.649Z,544.00
2023-03-11T13:46:14.746Z,545.00
2023-03-11T13:47:14.733Z,545.00
2023-03-11T13:48:14.806Z,544.00
2023-03-11T13:49:14.783Z,542.00
2023-03-11T13:50:14.809Z,547.00
2023-03-11T13:51:14.815Z,545.00
2023-03-11T13:52:14.931Z,547.00
2023-03-11T13:53:14.861Z,544.00
2023-03-11T13:54:14.889Z,545.00
2023-03-11T13:55:14.918Z,545.00
2023-03-11T13:56:14.929Z,546.00
2023-03-11T13:57:14.958Z,544.00
2023-03-11T13:58:14.990Z,542.00
2023-03-11T13:59:15.024Z,544.00
2023-03-11T14:00:15.879Z,547.00
2023-03-11T14:01:15.092Z,542.00
2023-03-11T14:02:15.082Z,547.00
2023-03-11T14:03:15.125Z,541.00
2023-03-11T14:04:15.180Z,549.00
2023-03-11T14:05:15.171Z,548.00
2023-03-11T14:06:16.909Z,546.00
2023-03-11T14:07:15.274Z,545.00
2023-03-11T14:08:15.236Z,547.00
2023-03-11T14:09:15.248Z,547.00
2023-03-11T14:10:15.269Z,549.00
2023-03-11T14:11:15.356Z,548.00
2023-03-11T14:12:16.952Z,551.00
2023-03-11T14:13:15.308Z,551.00
2023-03-11T14:14:15.311Z,551.00
2023-03-11T14:15:15.346Z,550.00
2023-03-11T14:16:15.377Z,550.00
2023-03-11T14:17:16.184Z,552.00
2023-03-11T14:18:15.397Z,554.00
2023-03-11T14:19:16.230Z,553.00
2023-03-11T14:20:15.482Z,552.00
2023-03-11T14:21:15.461Z,552.00
2023-03-11T14:22:15.441Z,554.00
2023-03-11T14:23:15.453Z,552.00
2023-03-11T14:24:15.466Z,549.00
2023-03-11T14:25:15.487Z,550.00
2023-03-11T14:26:15.496Z,547.00
2023-03-11T14:27:15.526Z,548.00
2023-03-11T14:28:15.543Z,549.00
2023-03-11T14:29:16.172Z,552.00
2023-03-11T14:30:15.565Z,550.00
2023-03-11T14:31:15.595Z,553.00
2023-03-11T14:32:15.693Z,548.00
2023-03-11T14:33:15.625Z,549.00
2023-03-11T14:34:15.655Z,550.00
2023-03-11T14:35:15.668Z,549.00
2023-03-11T14:36:15.758Z,550.00
2023-03-11T14:37:15.676Z,550.00
2023-03-11T14:38:15.706Z,546.00
2023-03-11T14:39:15.710Z,551.00
2023-03-11T14:40:15.735Z,549.00
2023-03-11T14:41:15.749Z,549.00
2023-03-11T14:42:15.782Z,548.00
2023-03-11T14:43:16.687Z,550.00
2023-03-11T14:44:15.816Z,550.00
2023-03-11T14:45:15.823Z,549.00
2023-03-11T14:46:15.875Z,550.00
2023-03-11T14:47:15.863Z,551.00
2023-03-11T14:48:15.875Z,549.00
2023-03-11T14:49:15.987Z,547.00
2023-03-11T14:50:15.926Z,551.00
2023-03-11T14:51:15.941Z,550.00
2023-03-11T14:52:15.960Z,548.00
2023-03-11T14:53:15.998Z,547.00
2023-03-11T14:54:15.996Z,548.00
2023-03-11T14:55:16.021Z,548.00
2023-03-11T14:56:16.037Z,546.00
2023-03-11T14:57:16.059Z,546.00
2023-03-11T14:58:16.193Z,543.00
2023-03-11T14:59:16.094Z,546.00
2023-03-11T15:00:16.088Z,545.00
2023-03-11T15:01:16.130Z,548.00
2023-03-11T15:02:16.224Z,546.00
2023-03-11T15:03:16.695Z,547.00
2023-03-11T15:04:16.212Z,546.00
2023-03-11T15:05:16.178Z,551.00
2023-03-11T15:06:16.189Z,541.00
2023-03-11T15:07:16.226Z,543.00
2023-03-11T15:08:16.235Z,546.00
2023-03-11T15:09:17.175Z,545.00
2023-03-11T15:10:16.278Z,545.00
2023-03-11T15:11:16.314Z,543.00
2023-03-11T15:12:16.307Z,545.00
2023-03-11T15:13:16.317Z,546.00
2023-03-11T15:14:16.351Z,543.00
2023-03-11T15:15:16.382Z,544.00
2023-03-11T15:16:17.225Z,551.00
2023-03-11T15:17:32.833Z,545.00
2023-03-11T17:10:18.942Z,539.00
2023-03-11T17:11:18.957Z,534.00
2023-03-11T17:12:19.128Z,539.00
2023-03-11T17:13:19.299Z,534.00
2023-03-11T17:14:19.026Z,535.00
2023-03-11T17:15:19.056Z,539.00
2023-03-11T17:16:19.119Z,543.00
2023-03-11T17:17:19.095Z,536.00
2023-03-11T17:18:19.102Z,537.00
2023-03-11T17:19:19.729Z,538.00
2023-03-11T17:20:21.510Z,538.00
2023-03-11T17:21:19.285Z,538.00
2023-03-11T17:22:19.323Z,536.00
2023-03-11T17:23:19.342Z,536.00
2023-03-11T17:24:19.376Z,533.00
2023-03-11T17:25:19.397Z,531.00
2023-03-11T17:26:19.414Z,533.00
2023-03-11T17:27:19.436Z,536.00
2023-03-11T17:28:19.463Z,533.00
2023-03-11T17:29:19.483Z,537.00
2023-03-11T17:30:34.135Z,537.00
2023-03-11T17:31:20.642Z,538.00
2023-03-11T17:32:19.583Z,538.00
2023-03-11T17:33:19.552Z,538.00
2023-03-11T17:34:19.564Z,537.00
2023-03-11T17:35:19.662Z,535.00
2023-03-11T17:36:19.590Z,537.00
2023-03-11T17:37:19.607Z,533.00
2023-03-11T17:38:19.610Z,533.00
2023-03-11T17:39:19.635Z,536.00
2023-03-11T17:40:19.639Z,535.00
2023-03-11T17:41:19.744Z,534.00
2023-03-11T17:42:19.682Z,532.00
2023-03-11T17:43:19.702Z,533.00
2023-03-11T17:44:19.717Z,534.00
2023-03-11T17:45:19.743Z,539.00
2023-03-11T17:46:20.795Z,532.00
2023-03-11T17:47:20.785Z,534.00
2023-03-11T17:48:19.771Z,531.00
2023-03-11T17:49:19.790Z,536.00
2023-03-11T17:50:19.820Z,538.00
2023-03-11T17:51:19.898Z,532.00
2023-03-11T17:52:19.839Z,536.00
2023-03-11T17:53:19.856Z,535.00
2023-03-11T17:54:19.881Z,530.00
2023-03-11T17:55:19.883Z,534.00
2023-03-11T17:56:19.903Z,530.00
2023-03-11T17:57:19.922Z,533.00
2023-03-11T17:58:19.931Z,529.00
2023-03-11T17:59:20.014Z,533.00
2023-03-11T18:00:19.958Z,532.00
2023-03-11T18:01:19.973Z,530.00
2023-03-11T18:02:20.009Z,532.00
2023-03-11T18:03:20.021Z,532.00
2023-03-11T18:04:20.075Z,533.00
2023-03-11T18:05:20.071Z,533.00
2023-03-11T18:06:20.735Z,527.00
2023-03-11T18:07:20.106Z,528.00
2023-03-11T18:08:20.141Z,534.00
2023-03-11T18:09:20.150Z,528.00
2023-03-11T18:10:20.223Z,525.00
2023-03-11T18:11:20.198Z,525.00
2023-03-11T18:12:20.227Z,528.00
2023-03-11T18:13:21.232Z,527.00
2023-03-11T18:14:20.274Z,526.00
2023-03-11T18:15:20.309Z,532.00
2023-03-11T18:16:20.352Z,528.00
2023-03-11T18:17:20.736Z,527.00
2023-03-11T18:18:20.364Z,525.00
2023-03-11T18:19:20.463Z,524.00
2023-03-11T18:20:20.447Z,524.00
2023-03-11T18:21:20.452Z,525.00
2023-03-11T18:22:20.471Z,522.00
2023-03-11T18:23:20.509Z,522.00
2023-03-11T18:24:20.534Z,523.00
2023-03-11T18:25:20.554Z,525.00
2023-03-11T18:26:20.569Z,524.00
2023-03-11T18:27:20.605Z,523.00
2023-03-11T18:28:21.250Z,522.00
2023-03-11T18:29:20.668Z,522.00
2023-03-11T18:30:20.694Z,522.00
2023-03-11T18:31:20.744Z,522.00
2023-03-11T18:32:20.841Z,520.00
2023-03-11T18:33:20.754Z,522.00
2023-03-11T18:34:21.734Z,522.00
2023-03-11T18:35:20.806Z,518.00
2023-03-11T18:36:20.827Z,521.00
2023-03-11T18:37:20.856Z,518.00
2023-03-11T18:38:20.879Z,517.00
2023-03-11T18:39:20.896Z,517.00
2023-03-11T18:40:20.925Z,517.00
2023-03-11T18:41:20.998Z,517.00
2023-03-11T18:42:20.975Z,515.00
2023-03-11T18:43:21.007Z,519.00
2023-03-11T18:44:21.039Z,519.00
2023-03-11T18:45:21.055Z,520.00
2023-03-11T18:46:21.826Z,512.00
2023-03-11T18:47:21.115Z,516.00
2023-03-11T18:48:21.142Z,516.00
2023-03-11T18:49:21.185Z,515.00
2023-03-11T18:50:21.188Z,510.00
2023-03-11T18:51:21.280Z,512.00
2023-03-11T18:52:21.245Z,514.00
2023-03-11T18:53:21.261Z,513.00
2023-03-11T18:54:21.294Z,518.00
2023-03-11T18:55:21.315Z,514.00
2023-03-11T18:56:21.343Z,507.00
2023-03-11T18:57:21.361Z,509.00
2023-03-11T18:58:21.400Z,508.00
2023-03-11T18:59:21.418Z,512.00
2023-03-11T19:00:21.453Z,511.00
2023-03-11T19:01:21.624Z,506.00
2023-03-11T19:02:21.498Z,514.00
2023-03-11T19:03:21.520Z,508.00
2023-03-11T19:04:21.536Z,510.00
2023-03-11T19:05:21.690Z,507.00
2023-03-11T19:06:21.593Z,510.00
2023-03-11T19:07:21.620Z,510.00
2023-03-11T19:08:21.639Z,509.00
2023-03-11T19:09:21.670Z,507.00
2023-03-11T19:10:21.689Z,506.00
2023-03-11T19:11:21.725Z,510.00
2023-03-11T19:12:21.741Z,504.00
2023-03-11T19:13:21.758Z,509.00
2023-03-11T19:14:21.782Z,505.00
2023-03-11T19:15:21.806Z,504.00
2023-03-11T19:16:21.913Z,504.00
2023-03-11T19:17:21.848Z,502.00
2023-03-11T19:18:21.879Z,505.00
2023-03-11T19:19:21.902Z,505.00
2023-03-11T19:20:21.923Z,506.00
2023-03-11T19:21:21.939Z,503.00
2023-03-11T19:22:21.978Z,506.00
2023-03-11T19:23:21.989Z,505.00
2023-03-11T19:24:22.011Z,504.00
2023-03-11T19:25:22.028Z,504.00
2023-03-11T19:26:30.747Z,503.00
2023-03-11T19:27:23.074Z,504.00
2023-03-11T19:28:22.067Z,504.00
2023-03-11T19:29:22.083Z,504.00
2023-03-11T19:30:22.774Z,501.00
2023-03-11T19:31:22.194Z,501.00
2023-03-11T19:32:22.138Z,506.00
2023-03-11T19:33:22.263Z,503.00
2023-03-11T19:34:22.136Z,502.00
2023-03-11T19:35:22.143Z,504.00
2023-03-11T19:36:22.166Z,507.00
2023-03-11T19:37:22.176Z,500.00
2023-03-11T19:38:22.197Z,505.00
2023-03-11T19:39:22.218Z,506.00
2023-03-11T19:40:22.208Z,501.00
2023-03-11T19:41:22.233Z,505.00
2023-03-11T19:42:22.269Z,509.00
2023-03-11T19:43:22.271Z,505.00
2023-03-11T19:44:22.297Z,503.00
2023-03-11T19:45:22.292Z,506.00
2023-03-11T19:46:22.415Z,503.00
2023-03-11T19:47:22.322Z,506.00
2023-03-11T19:48:22.351Z,510.00
2023-03-11T19:49:22.356Z,504.00
2023-03-11T19:50:22.367Z,504.00
2023-03-11T19:51:22.406Z,506.00
2023-03-11T19:52:22.431Z,507.00
2023-03-11T19:53:22.421Z,505.00
2023-03-11T19:54:22.500Z,500.00
2023-03-11T19:55:23.258Z,500.00
2023-03-11T19:56:22.483Z,505.00
2023-03-11T19:57:22.518Z,503.00
2023-03-11T19:58:22.482Z,502.00
2023-03-11T19:59:22.505Z,505.00
2023-03-11T20:00:22.523Z,506.00
2023-03-11T20:01:22.605Z,506.00
2023-03-11T20:02:22.621Z,503.00
2023-03-11T20:03:22.603Z,504.00
2023-03-11T20:04:22.671Z,507.00
2023-03-11T20:05:22.671Z,507.00
2023-03-11T20:06:22.773Z,501.00
2023-03-11T20:07:22.717Z,503.00
2023-03-11T20:08:22.741Z,505.00
2023-03-11T20:09:22.753Z,505.00
2023-03-11T20:10:22.771Z,503.00
2023-03-11T20:11:22.813Z,504.00
2023-03-11T20:12:22.830Z,504.00
2023-03-11T20:13:22.983Z,507.00
2023-03-11T20:14:22.980Z,505.00
2023-03-11T20:15:22.963Z,508.00
2023-03-11T20:16:22.953Z,502.00
2023-03-11T20:17:22.940Z,503.00
2023-03-11T20:18:22.968Z,504.00
2023-03-11T20:19:23.038Z,502.00
2023-03-11T21:29:24.956Z,502.00
2023-03-11T21:30:24.930Z,500.00
2023-03-11T21:31:27.190Z,505.00
2023-03-11T21:32:25.130Z,506.00
2023-03-11T21:33:25.133Z,506.00
2023-03-11T21:35:25.104Z,506.00
2023-03-11T21:37:25.178Z,507.00
2023-03-11T21:38:25.226Z,508.00
2023-03-11T21:39:25.160Z,502.00
2023-03-11T21:40:25.300Z,505.00
2023-03-11T21:41:25.253Z,509.00
2023-03-11T21:42:25.293Z,502.00
2023-03-11T21:43:25.373Z,504.00
2023-03-11T21:44:25.282Z,505.00
2023-03-11T21:45:25.384Z,502.00
2023-03-11T21:46:25.528Z,508.00
2023-03-11T21:47:25.401Z,506.00
2023-03-11T21:48:25.417Z,506.00
2023-03-11T21:49:25.511Z,506.00
2023-03-11T21:50:25.491Z,510.00
2023-03-11T21:51:25.515Z,502.00
2023-03-11T21:52:25.524Z,505.00
2023-03-11T21:53:25.675Z,507.00
2023-03-11T21:54:25.635Z,507.00
2023-03-11T21:55:25.623Z,510.00
2023-03-11T21:56:25.766Z,504.00
2023-03-11T21:57:25.781Z,508.00
2023-03-11T21:58:25.875Z,505.00
2023-03-11T21:59:26.088Z,507.00
2023-03-11T22:00:25.860Z,502.00
2023-03-11T22:01:25.982Z,503.00
2023-03-11T22:02:25.841Z,503.00
2023-03-11T22:03:26.171Z,508.00
2023-03-11T22:04:25.927Z,504.00
2023-03-11T22:05:25.946Z,505.00
2023-03-11T22:06:26.041Z,504.00
2023-03-11T22:07:26.111Z,510.00
2023-03-11T22:08:26.060Z,503.00
2023-03-11T22:09:26.311Z,501.00
2023-03-11T22:10:26.208Z,502.00
2023-03-11T22:11:26.134Z,504.00
2023-03-11T22:12:26.870Z,504.00
2023-03-11T22:13:26.148Z,504.00
2023-03-11T22:14:26.364Z,507.00
2023-03-11T22:15:26.284Z,510.00
2023-03-11T22:16:26.286Z,505.00
2023-03-11T22:17:26.474Z,507.00
2023-03-11T22:18:26.350Z,507.00
2023-03-11T22:19:26.316Z,503.00
2023-03-11T22:20:26.344Z,504.00
2023-03-11T22:21:26.476Z,506.00
2023-03-11T22:22:26.496Z,506.00
2023-03-11T22:23:26.453Z,505.00
2023-03-11T22:24:26.503Z,505.00
2023-03-11T22:25:26.553Z,508.00
2023-03-11T22:26:26.631Z,506.00
2023-03-11T22:27:26.695Z,508.00
2023-03-11T22:28:26.750Z,509.00
2023-03-11T22:29:26.810Z,502.00
2023-03-11T22:30:26.882Z,501.00
2023-03-11T22:31:26.951Z,503.00
2023-03-11T22:32:27.009Z,505.00
2023-03-11T22:33:27.009Z,506.00
2023-03-11T22:34:27.036Z,502.00
2023-03-11T22:35:27.097Z,507.00
2023-03-11T22:36:27.120Z,506.00
2023-03-11T22:37:27.146Z,506.00
2023-03-11T22:38:27.198Z,504.00
2023-03-11T22:39:27.255Z,505.00
2023-03-11T22:40:27.325Z,502.00
2023-03-11T22:41:27.346Z,504.00
2023-03-11T22:42:27.401Z,503.00
2023-03-11T22:43:27.456Z,507.00
2023-03-11T22:44:27.490Z,506.00
2023-03-11T22:45:27.555Z,504.00
2023-03-11T22:46:27.761Z,505.00
2023-03-11T22:47:27.815Z,505.00
2023-03-11T22:48:27.801Z,501.00
2023-03-11T22:49:27.839Z,503.00
2023-03-11T22:50:27.904Z,505.00
2023-03-11T22:51:27.944Z,504.00
2023-03-11T22:52:27.986Z,506.00
2023-03-11T22:53:28.029Z,505.00
2023-03-11T22:54:28.086Z,504.00
2023-03-11T22:55:28.080Z,503.00
2023-03-11T22:56:28.138Z,502.00
2023-03-11T22:57:28.162Z,505.00
2023-03-11T22:59:28.229Z,508.00
2023-03-11T23:00:28.256Z,504.00
2023-03-11T23:01:28.296Z,504.00
2023-03-11T23:02:28.319Z,506.00
2023-03-11T23:03:28.381Z,504.00
2023-03-11T23:04:28.387Z,503.00
2023-03-11T23:05:28.430Z,504.00
2023-03-11T23:06:28.460Z,501.00
2023-03-11T23:07:28.483Z,505.00
2023-03-11T23:08:28.518Z,504.00
2023-03-11T23:09:28.551Z,502.00
2023-03-11T23:10:28.599Z,500.00
2023-03-11T23:11:28.635Z,507.00
2023-03-11T23:12:28.673Z,507.00
2023-03-11T23:13:28.695Z,514.00
2023-03-11T23:14:43.578Z,505.00
2023-03-11T23:15:29.770Z,505.00
2023-03-11T23:16:29.385Z,506.00
2023-03-11T23:17:28.824Z,506.00
2023-03-11T23:18:28.892Z,507.00
2023-03-11T23:19:28.950Z,506.00
2023-03-11T23:20:28.904Z,503.00
2023-03-11T23:21:28.961Z,501.00
2023-03-11T23:22:28.957Z,505.00
2023-03-11T23:23:28.982Z,504.00
2023-03-11T23:24:29.005Z,504.00
2023-03-11T23:25:29.028Z,500.00
2023-03-11T23:26:29.056Z,504.00
2023-03-11T23:27:29.095Z,506.00
2023-03-11T23:28:29.103Z,504.00
2023-03-11T23:29:29.116Z,504.00
2023-03-11T23:30:29.154Z,501.00
2023-03-11T23:31:29.247Z,503.00
2023-03-11T23:32:29.288Z,501.00
2023-03-11T23:33:29.197Z,504.00
2023-03-11T23:34:29.227Z,504.00
2023-03-11T23:35:29.842Z,500.00
2023-03-11T23:36:29.296Z,504.00
2023-03-11T23:37:29.291Z,503.00
2023-03-11T23:38:29.323Z,503.00
2023-03-11T23:39:29.354Z,502.00
2023-03-11T23:40:29.380Z,504.00
2023-03-11T23:41:29.439Z,505.00
2023-03-11T23:42:29.424Z,511.00
2023-03-11T23:43:29.463Z,507.00
2023-03-11T23:44:29.502Z,506.00
2023-03-11T23:45:29.574Z,506.00
2023-03-11T23:46:29.659Z,504.00
2023-03-11T23:47:29.619Z,508.00
2023-03-11T23:48:29.653Z,507.00
2023-03-11T23:49:29.694Z,507.00
2023-03-11T23:50:29.710Z,510.00
2023-03-11T23:51:29.749Z,505.00